sensor_id;sensor_type;location;lat;lon;timestamp;pressure;altitude;pressure_sealevel;temperature;humidity
54146;BME280;65909;49.422;7.738;2023-06-22T00:02:24;-16276.47;;;-145.25;100.00
54146;BME280;65909;49.422;7.738;2023-06-22T00:04:50;-16276.47;;;-145.25;100.00
54146;BME280;65909;49.422;7.738;2023-06-22T00:07:15;-16276.47;;;-145.25;100.00
54146;BME280;65909;49.422;7.738;2023-06-22T00:09:41;-16276.47;;;-145.25;100.00
54146;BME280;65909;49.422;7.738;2023-06-22T00:12:06;-16276.47;;;-145.25;100.00
54146;BME280;65909;49.422;7.738;2023-06-22T00:14:32;-16276.47;;;-145.25;100.00
54146;BME280;65909;49.422;7.738;2023-06-22T00:16:57;-16276.47;;;-145.25;100.00
54146;BME280;65909;49.422;7.738;2023-06-22T00:19:24;-16276.47;;;-145.25;100.00
54146;BME280;65909;49.422;7.738;2023-06-22T00:21:52;-16276.47;;;-145.25;100.00
54146;BME280;65909;49.422;7.738;2023-06-22T00:24:21;-16276.47;;;-145.25;100.00
54146;BME280;65909;49.422;7.738;2023-06-22T00:26:48;-16276.47;;;-145.25;100.00
54146;BME280;65909;49.422;7.738;2023-06-22T00:29:14;-16276.47;;;-145.25;100.00
54146;BME280;65909;49.422;7.738;2023-06-22T00:31:40;-16276.47;;;-145.25;100.00
54146;BME280;65909;49.422;7.738;2023-06-22T00:34:05;-16276.47;;;-145.25;100.00
54146;BME280;65909;49.422;7.738;2023-06-22T00:36:31;-16276.47;;;-145.25;100.00
54146;BME280;65909;49.422;7.738;2023-06-22T00:38:57;-16276.47;;;-145.25;100.00
54146;BME280;65909;49.422;7.738;2023-06-22T00:41:22;-16276.47;;;-145.25;100.00
54146;BME280;65909;49.422;7.738;2023-06-22T00:43:48;-16276.47;;;-145.25;100.00
54146;BME280;65909;49.422;7.738;2023-06-22T00:46:13;-16276.47;;;-145.25;100.00
54146;BME280;65909;49.422;7.738;2023-06-22T00:48:39;-16276.47;;;-145.25;100.00
54146;BME280;65909;49.422;7.738;2023-06-22T00:51:09;-16276.47;;;-145.25;100.00
54146;BME280;65909;49.422;7.738;2023-06-22T00:53:35;-16276.47;;;-145.25;100.00
54146;BME280;65909;49.422;7.738;2023-06-22T00:56:02;-16276.47;;;-145.25;100.00
54146;BME280;65909;49.422;7.738;2023-06-22T00:58:28;-16276.47;;;-145.25;100.00
54146;BME280;65909;49.422;7.738;2023-06-22T01:00:54;-16276.47;;;-145.25;100.00
54146;BME280;65909;49.422;7.738;2023-06-22T01:03:20;-16276.47;;;-145.25;100.00
54146;BME280;65909;49.422;7.738;2023-06-22T01:05:46;-16276.47;;;-145.25;100.00
54146;BME280;65909;49.422;7.738;2023-06-22T01:11:14;-16276.47;;;-145.25;100.00
54146;BME280;65909;49.422;7.738;2023-06-22T01:14:06;-16276.47;;;-145.25;100.00
54146;BME280;65909;49.422;7.738;2023-06-22T01:16:37;-16276.47;;;-145.25;100.00
54146;BME280;65909;49.422;7.738;2023-06-22T01:19:25;-16276.47;;;-145.25;100.00
54146;BME280;65909;49.422;7.738;2023-06-22T01:21:55;-16276.47;;;-145.25;100.00
54146;BME280;65909;49.422;7.738;2023-06-22T01:24:33;-16276.47;;;-145.25;100.00
54146;BME280;65909;49.422;7.738;2023-06-22T01:29:57;60229.84;;;-145.25;100.00
54146;BME280;65909;49.422;7.738;2023-06-22T01:32:30;60229.84;;;-145.25;100.00
54146;BME280;65909;49.422;7.738;2023-06-22T01:34:58;-16276.47;;;-145.25;100.00
54146;BME280;65909;49.422;7.738;2023-06-22T01:37:25;40254.44;;;-145.25;100.00
54146;BME280;65909;49.422;7.738;2023-06-22T01:39:51;16354.50;;;-145.25;100.00
54146;BME280;65909;49.422;7.738;2023-06-22T01:42:16;7869.28;;;-145.25;100.00
54146;BME280;65909;49.422;7.738;2023-06-22T01:44:42;775.06;;;-145.25;100.00
54146;BME280;65909;49.422;7.738;2023-06-22T01:47:08;236.25;;;-145.25;100.00
54146;BME280;65909;49.422;7.738;2023-06-22T01:49:34;-2668.91;;;-145.25;100.00
54146;BME280;65909;49.422;7.738;2023-06-22T01:52:00;-7575.94;;;-145.25;100.00
54146;BME280;65909;49.422;7.738;2023-06-22T01:54:25;-6343.41;;;-145.25;100.00
54146;BME280;65909;49.422;7.738;2023-06-22T01:56:50;-12094.56;;;-145.25;100.00
54146;BME280;65909;49.422;7.738;2023-06-22T01:59:36;-16276.47;;;-145.25;100.00
54146;BME280;65909;49.422;7.738;2023-06-22T02:02:09;-15425.16;;;-145.25;100.00
54146;BME280;65909;49.422;7.738;2023-06-22T02:04:44;-15305.72;;;-145.25;100.00
54146;BME280;65909;49.422;7.738;2023-06-22T02:07:14;-13750.44;;;-145.25;100.00
54146;BME280;65909;49.422;7.738;2023-06-22T02:09:44;-13141.06;;;-145.25;100.00
54146;BME280;65909;49.422;7.738;2023-06-22T02:12:11;-13411.47;;;-145.25;100.00
54146;BME280;65909;49.422;7.738;2023-06-22T02:14:38;-15611.22;;;-145.25;100.00
54146;BME280;65909;49.422;7.738;2023-06-22T02:17:04;-15738.50;;;-145.25;100.00
54146;BME280;65909;49.422;7.738;2023-06-22T02:19:35;-15033.47;;;-145.25;100.00
54146;BME280;65909;49.422;7.738;2023-06-22T02:22:01;-14914.00;;;-145.25;100.00
54146;BME280;65909;49.422;7.738;2023-06-22T02:24:26;-13340.94;;;-145.25;100.00
54146;BME280;65909;49.422;7.738;2023-06-22T02:26:52;-13822.91;;;-145.25;100.00
54146;BME280;65909;49.422;7.738;2023-06-22T02:29:19;-13521.19;;;-145.25;100.00
54146;BME280;65909;49.422;7.738;2023-06-22T02:31:45;-15946.06;;;-145.25;100.00
54146;BME280;65909;49.422;7.738;2023-06-22T02:34:10;-15940.19;;;-145.25;100.00
54146;BME280;65909;49.422;7.738;2023-06-22T02:36:35;-15669.94;;;-145.25;100.00
54146;BME280;65909;49.422;7.738;2023-06-22T02:39:01;-15926.47;;;-145.25;100.00
54146;BME280;65909;49.422;7.738;2023-06-22T02:41:28;-16167.31;;;-145.25;100.00
54146;BME280;65909;49.422;7.738;2023-06-22T02:43:54;-16276.47;;;-145.25;100.00
54146;BME280;65909;49.422;7.738;2023-06-22T02:46:19;-16276.47;;;-145.25;100.00
54146;BME280;65909;49.422;7.738;2023-06-22T02:48:45;-16276.47;;;-145.25;100.00
54146;BME280;65909;49.422;7.738;2023-06-22T02:51:10;-16276.47;;;-145.25;100.00
54146;BME280;65909;49.422;7.738;2023-06-22T02:53:35;-16276.47;;;-145.25;100.00
54146;BME280;65909;49.422;7.738;2023-06-22T02:56:04;-16276.47;;;-145.25;100.00
54146;BME280;65909;49.422;7.738;2023-06-22T02:58:32;-16276.47;;;-145.25;100.00
54146;BME280;65909;49.422;7.738;2023-06-22T03:01:04;-16276.47;;;-145.25;100.00
54146;BME280;65909;49.422;7.738;2023-06-22T03:03:30;-16276.47;;;-145.25;100.00
54146;BME280;65909;49.422;7.738;2023-06-22T03:05:55;-16229.97;;;-145.25;100.00
54146;BME280;65909;49.422;7.738;2023-06-22T03:08:20;-16204.50;;;-145.25;100.00
54146;BME280;65909;49.422;7.738;2023-06-22T03:10:46;-16276.47;;;-145.25;100.00
54146;BME280;65909;49.422;7.738;2023-06-22T03:13:11;-16276.47;;;-145.25;100.00
54146;BME280;65909;49.422;7.738;2023-06-22T03:15:36;-16276.47;;;-145.25;100.00
54146;BME280;65909;49.422;7.738;2023-06-22T03:18:02;-16276.47;;;-145.25;100.00
54146;BME280;65909;49.422;7.738;2023-06-22T03:20:27;-16276.47;;;-145.25;100.00
54146;BME280;65909;49.422;7.738;2023-06-22T03:22:58;-16276.47;;;-145.25;100.00
54146;BME280;65909;49.422;7.738;2023-06-22T03:25:24;-16276.47;;;-145.25;100.00
54146;BME280;65909;49.422;7.738;2023-06-22T03:27:49;-16276.47;;;-145.25;100.00
54146;BME280;65909;49.422;7.738;2023-06-22T03:30:14;-16276.47;;;-145.25;100.00
54146;BME280;65909;49.422;7.738;2023-06-22T03:32:40;-16276.47;;;-145.25;100.00
54146;BME280;65909;49.422;7.738;2023-06-22T03:35:06;-16276.47;;;-145.25;100.00
54146;BME280;65909;49.422;7.738;2023-06-22T03:37:31;-16276.47;;;-145.25;100.00
54146;BME280;65909;49.422;7.738;2023-06-22T03:39:57;-16276.47;;;-145.25;100.00
54146;BME280;65909;49.422;7.738;2023-06-22T03:42:22;-16276.47;;;-145.25;100.00
54146;BME280;65909;49.422;7.738;2023-06-22T03:44:47;-16276.47;;;-145.25;100.00
54146;BME280;65909;49.422;7.738;2023-06-22T03:47:13;-16276.47;;;-145.25;100.00
54146;BME280;65909;49.422;7.738;2023-06-22T03:49:38;-16276.47;;;-145.25;100.00
54146;BME280;65909;49.422;7.738;2023-06-22T03:52:04;-16276.47;;;-145.25;100.00
54146;BME280;65909;49.422;7.738;2023-06-22T03:54:30;-16276.47;;;-145.25;100.00
54146;BME280;65909;49.422;7.738;2023-06-22T03:56:58;-16276.47;;;-145.25;100.00
54146;BME280;65909;49.422;7.738;2023-06-22T03:59:24;-16276.47;;;-145.25;100.00
54146;BME280;65909;49.422;7.738;2023-06-22T04:01:50;-16276.47;;;-145.25;100.00
54146;BME280;65909;49.422;7.738;2023-06-22T04:04:17;-16276.47;;;-145.25;100.00
54146;BME280;65909;49.422;7.738;2023-06-22T04:06:46;-16276.47;;;-145.25;100.00
54146;BME280;65909;49.422;7.738;2023-06-22T04:09:11;-16276.47;;;-145.25;100.00
54146;BME280;65909;49.422;7.738;2023-06-22T04:11:37;-16276.47;;;-145.25;100.00
54146;BME280;65909;49.422;7.738;2023-06-22T04:14:02;-16276.47;;;-145.25;100.00
54146;BME280;65909;49.422;7.738;2023-06-22T04:16:28;-16276.47;;;-145.25;100.00
54146;BME280;65909;49.422;7.738;2023-06-22T04:18:53;-16276.47;;;-145.25;100.00
54146;BME280;65909;49.422;7.738;2023-06-22T04:21:19;-16276.47;;;-145.25;100.00
54146;BME280;65909;49.422;7.738;2023-06-22T04:23:47;-16276.47;;;-145.25;100.00
54146;BME280;65909;49.422;7.738;2023-06-22T04:26:13;-16276.47;;;-145.25;100.00
54146;BME280;65909;49.422;7.738;2023-06-22T04:28:39;-16276.47;;;-145.25;100.00
54146;BME280;65909;49.422;7.738;2023-06-22T04:31:05;-16276.47;;;-145.25;100.00
54146;BME280;65909;49.422;7.738;2023-06-22T04:33:30;-16276.47;;;-145.25;100.00
54146;BME280;65909;49.422;7.738;2023-06-22T04:35:56;-16276.47;;;-145.25;100.00
54146;BME280;65909;49.422;7.738;2023-06-22T04:38:29;-16276.47;;;-145.25;100.00
54146;BME280;65909;49.422;7.738;2023-06-22T04:40:58;-16276.47;;;-145.25;100.00
54146;BME280;65909;49.422;7.738;2023-06-22T04:43:24;-16276.47;;;-145.25;100.00
54146;BME280;65909;49.422;7.738;2023-06-22T04:45:50;-16276.47;;;-145.25;100.00
54146;BME280;65909;49.422;7.738;2023-06-22T04:48:17;-16276.47;;;-145.25;100.00
54146;BME280;65909;49.422;7.738;2023-06-22T04:50:42;-16276.47;;;-145.25;100.00
54146;BME280;65909;49.422;7.738;2023-06-22T04:53:09;-16276.47;;;-145.25;100.00
54146;BME280;65909;49.422;7.738;2023-06-22T04:55:37;-16276.47;;;-145.25;100.00
54146;BME280;65909;49.422;7.738;2023-06-22T04:58:07;-16276.47;;;-145.25;100.00
54146;BME280;65909;49.422;7.738;2023-06-22T05:00:32;-16276.47;;;-145.25;100.00
54146;BME280;65909;49.422;7.738;2023-06-22T05:02:57;-16276.47;;;-145.25;100.00
54146;BME280;65909;49.422;7.738;2023-06-22T05:05:24;-16276.47;;;-145.25;100.00
54146;BME280;65909;49.422;7.738;2023-06-22T05:07:51;-16276.47;;;-145.25;100.00
54146;BME280;65909;49.422;7.738;2023-06-22T05:10:18;-16276.47;;;-145.25;100.00
54146;BME280;65909;49.422;7.738;2023-06-22T05:12:44;-16276.47;;;-145.25;100.00
54146;BME280;65909;49.422;7.738;2023-06-22T05:15:10;-16276.47;;;-145.25;100.00
54146;BME280;65909;49.422;7.738;2023-06-22T05:17:36;-16276.47;;;-145.25;100.00
54146;BME280;65909;49.422;7.738;2023-06-22T05:20:02;-16276.47;;;-145.25;100.00
54146;BME280;65909;49.422;7.738;2023-06-22T05:22:31;-16276.47;;;-145.25;100.00
54146;BME280;65909;49.422;7.738;2023-06-22T05:24:56;-16276.47;;;-145.25;100.00
54146;BME280;65909;49.422;7.738;2023-06-22T05:27:22;-16276.47;;;-145.25;100.00
54146;BME280;65909;49.422;7.738;2023-06-22T05:29:47;-16276.47;;;-145.25;100.00
54146;BME280;65909;49.422;7.738;2023-06-22T05:32:12;-16276.47;;;-145.25;100.00
54146;BME280;65909;49.422;7.738;2023-06-22T05:34:38;-16276.47;;;-145.25;100.00
54146;BME280;65909;49.422;7.738;2023-06-22T05:37:03;-16276.47;;;-145.25;100.00
54146;BME280;65909;49.422;7.738;2023-06-22T05:39:29;-16276.47;;;-145.25;100.00
54146;BME280;65909;49.422;7.738;2023-06-22T05:41:54;-16276.47;;;-145.25;100.00
54146;BME280;65909;49.422;7.738;2023-06-22T05:44:20;-16276.47;;;-145.25;100.00
54146;BME280;65909;49.422;7.738;2023-06-22T05:46:45;-16276.47;;;-145.25;100.00
54146;BME280;65909;49.422;7.738;2023-06-22T05:49:12;-16276.47;;;-145.25;100.00
54146;BME280;65909;49.422;7.738;2023-06-22T05:51:38;-16276.47;;;-145.25;100.00
54146;BME280;65909;49.422;7.738;2023-06-22T05:54:03;-16276.47;;;-145.25;100.00
54146;BME280;65909;49.422;7.738;2023-06-22T05:56:29;-16276.47;;;-145.25;100.00
54146;BME280;65909;49.422;7.738;2023-06-22T05:58:54;-16276.47;;;-145.25;100.00
54146;BME280;65909;49.422;7.738;2023-06-22T06:01:19;-16276.47;;;-145.25;100.00
54146;BME280;65909;49.422;7.738;2023-06-22T06:03:45;-16276.47;;;-145.25;100.00
54146;BME280;65909;49.422;7.738;2023-06-22T06:06:11;-16276.47;;;-145.25;100.00
54146;BME280;65909;49.422;7.738;2023-06-22T06:08:37;-16276.47;;;-145.25;100.00
54146;BME280;65909;49.422;7.738;2023-06-22T06:11:03;-16276.47;;;-145.25;100.00
54146;BME280;65909;49.422;7.738;2023-06-22T06:13:28;-16276.47;;;-145.25;100.00
54146;BME280;65909;49.422;7.738;2023-06-22T06:15:53;-16276.47;;;-145.25;100.00
54146;BME280;65909;49.422;7.738;2023-06-22T06:18:21;-16276.47;;;-145.25;100.00
54146;BME280;65909;49.422;7.738;2023-06-22T06:20:46;-16276.47;;;-145.25;100.00
54146;BME280;65909;49.422;7.738;2023-06-22T06:23:11;-16276.47;;;-145.25;100.00
54146;BME280;65909;49.422;7.738;2023-06-22T06:25:37;-16276.47;;;-145.25;100.00
54146;BME280;65909;49.422;7.738;2023-06-22T06:28:03;-16276.47;;;-145.25;100.00
54146;BME280;65909;49.422;7.738;2023-06-22T06:30:28;-16276.47;;;-145.25;100.00
54146;BME280;65909;49.422;7.738;2023-06-22T06:32:54;-16276.47;;;-145.25;100.00
54146;BME280;65909;49.422;7.738;2023-06-22T06:35:19;-16276.47;;;-145.25;100.00
54146;BME280;65909;49.422;7.738;2023-06-22T06:37:48;-16276.47;;;-145.25;100.00
54146;BME280;65909;49.422;7.738;2023-06-22T06:40:14;-16276.47;;;-145.25;100.00
54146;BME280;65909;49.422;7.738;2023-06-22T06:42:42;-16276.47;;;-145.25;100.00
54146;BME280;65909;49.422;7.738;2023-06-22T06:45:10;-16276.47;;;-145.25;100.00
54146;BME280;65909;49.422;7.738;2023-06-22T06:47:35;-16276.47;;;-145.25;100.00
54146;BME280;65909;49.422;7.738;2023-06-22T06:50:03;-16276.47;;;-145.25;100.00
54146;BME280;65909;49.422;7.738;2023-06-22T06:52:29;-16276.47;;;-145.25;100.00
54146;BME280;65909;49.422;7.738;2023-06-22T06:54:54;-16276.47;;;-145.25;100.00
54146;BME280;65909;49.422;7.738;2023-06-22T06:57:20;-16276.47;;;-145.25;100.00
54146;BME280;65909;49.422;7.738;2023-06-22T06:59:45;-16276.47;;;-145.25;100.00
54146;BME280;65909;49.422;7.738;2023-06-22T07:02:11;-16276.47;;;-145.25;100.00
54146;BME280;65909;49.422;7.738;2023-06-22T07:04:36;-16276.47;;;-145.25;100.00
54146;BME280;65909;49.422;7.738;2023-06-22T07:07:02;-16276.47;;;-145.25;100.00
54146;BME280;65909;49.422;7.738;2023-06-22T07:09:28;-16276.47;;;-145.25;100.00
54146;BME280;65909;49.422;7.738;2023-06-22T07:11:54;-16276.47;;;-145.25;100.00
54146;BME280;65909;49.422;7.738;2023-06-22T07:14:19;-16276.47;;;-145.25;100.00
54146;BME280;65909;49.422;7.738;2023-06-22T07:16:45;-16276.47;;;-145.25;99.60
54146;BME280;65909;49.422;7.738;2023-06-22T07:19:13;-16276.47;;;-145.25;100.00
54146;BME280;65909;49.422;7.738;2023-06-22T07:21:38;-16276.47;;;-145.25;97.66
54146;BME280;65909;49.422;7.738;2023-06-22T07:24:05;-16276.47;;;-145.25;96.22
54146;BME280;65909;49.422;7.738;2023-06-22T07:26:31;-16276.47;;;-145.25;96.54
54146;BME280;65909;49.422;7.738;2023-06-22T07:29:00;-16276.47;;;-145.25;96.67
54146;BME280;65909;49.422;7.738;2023-06-22T07:31:25;-16276.47;;;-145.25;93.98
54146;BME280;65909;49.422;7.738;2023-06-22T07:33:51;-16276.47;;;-145.25;92.36
54146;BME280;65909;49.422;7.738;2023-06-22T07:36:17;-16276.47;;;-145.25;88.99
54146;BME280;65909;49.422;7.738;2023-06-22T07:38:42;-16276.47;;;-145.25;88.47
54146;BME280;65909;49.422;7.738;2023-06-22T07:41:08;-16276.47;;;-145.25;86.72
54146;BME280;65909;49.422;7.738;2023-06-22T07:43:33;-16276.47;;;-145.25;86.36
54146;BME280;65909;49.422;7.738;2023-06-22T07:46:04;-16276.47;;;-145.25;84.83
54146;BME280;65909;49.422;7.738;2023-06-22T07:48:30;-16276.47;;;-145.25;82.98
54146;BME280;65909;49.422;7.738;2023-06-22T07:50:55;-16276.47;;;-145.25;80.67
54146;BME280;65909;49.422;7.738;2023-06-22T07:53:21;-16276.47;;;-145.25;78.29
54146;BME280;65909;49.422;7.738;2023-06-22T07:55:48;-16276.47;;;-145.25;76.59
54146;BME280;65909;49.422;7.738;2023-06-22T07:58:13;-16276.47;;;-145.25;75.65
54146;BME280;65909;49.422;7.738;2023-06-22T08:00:39;-16276.47;;;-145.25;74.30
54146;BME280;65909;49.422;7.738;2023-06-22T08:03:04;-16276.47;;;-145.25;74.52
54146;BME280;65909;49.422;7.738;2023-06-22T08:05:30;-16276.47;;;-145.25;71.62
54146;BME280;65909;49.422;7.738;2023-06-22T08:07:56;-16276.47;;;-145.25;71.25
54146;BME280;65909;49.422;7.738;2023-06-22T08:10:22;-16276.47;;;-145.25;69.83
54146;BME280;65909;49.422;7.738;2023-06-22T08:12:47;-16276.47;;;-145.25;69.07
54146;BME280;65909;49.422;7.738;2023-06-22T08:15:13;-16276.47;;;-145.25;69.01
54146;BME280;65909;49.422;7.738;2023-06-22T08:17:38;-16276.47;;;-145.25;67.17
54146;BME280;65909;49.422;7.738;2023-06-22T08:20:05;-16276.47;;;-145.25;65.42
54146;BME280;65909;49.422;7.738;2023-06-22T08:22:35;-16276.47;;;-145.25;64.16
54146;BME280;65909;49.422;7.738;2023-06-22T08:25:02;-16276.47;;;-145.25;62.72
54146;BME280;65909;49.422;7.738;2023-06-22T08:27:28;-16276.47;;;-145.25;62.77
54146;BME280;65909;49.422;7.738;2023-06-22T08:29:54;-16276.47;;;-145.25;61.78
54146;BME280;65909;49.422;7.738;2023-06-22T08:32:23;-16276.47;;;-145.25;60.29
54146;BME280;65909;49.422;7.738;2023-06-22T08:34:49;-16276.47;;;-145.25;61.88
54146;BME280;65909;49.422;7.738;2023-06-22T08:37:14;-16276.47;;;-145.25;61.94
54146;BME280;65909;49.422;7.738;2023-06-22T08:39:39;-16276.47;;;-145.25;60.77
54146;BME280;65909;49.422;7.738;2023-06-22T08:42:06;-16276.47;;;-145.25;59.05
54146;BME280;65909;49.422;7.738;2023-06-22T08:44:32;-16276.47;;;-145.25;55.84
54146;BME280;65909;49.422;7.738;2023-06-22T08:46:57;-16276.47;;;-145.25;57.32
54146;BME280;65909;49.422;7.738;2023-06-22T08:49:22;-16276.47;;;-145.25;56.10
54146;BME280;65909;49.422;7.738;2023-06-22T08:51:48;-16276.47;;;-145.25;55.96
54146;BME280;65909;49.422;7.738;2023-06-22T08:54:14;-16276.47;;;-145.25;56.29
54146;BME280;65909;49.422;7.738;2023-06-22T08:56:40;-15773.72;;;-145.25;52.70
54146;BME280;65909;49.422;7.738;2023-06-22T08:59:05;-16275.00;;;-145.25;53.59
54146;BME280;65909;49.422;7.738;2023-06-22T09:01:33;-14018.81;;;-145.25;51.15
54146;BME280;65909;49.422;7.738;2023-06-22T09:03:58;-16024.38;;;-145.25;53.89
54146;BME280;65909;49.422;7.738;2023-06-22T09:06:24;-15272.41;;;-145.25;52.90
54146;BME280;65909;49.422;7.738;2023-06-22T09:08:50;-15773.72;;;-145.25;53.73
54146;BME280;65909;49.422;7.738;2023-06-22T09:11:16;-12764.81;;;-145.25;50.50
54146;BME280;65909;49.422;7.738;2023-06-22T09:13:41;-13266.47;;;-145.25;51.23
54146;BME280;65909;49.422;7.738;2023-06-22T09:16:07;-14771.03;;;-145.25;53.13
54146;BME280;65909;49.422;7.738;2023-06-22T09:18:34;-15021.72;;;-145.25;53.86
54146;BME280;65909;49.422;7.738;2023-06-22T09:21:00;-13517.28;;;-145.25;51.93
54146;BME280;65909;49.422;7.738;2023-06-22T09:23:26;-9502.50;;;-145.25;48.78
54146;BME280;65909;49.422;7.738;2023-06-22T09:25:51;-15021.72;;;-145.25;54.35
54146;BME280;65909;49.422;7.738;2023-06-22T09:28:17;-16024.38;;;-145.25;55.81
54146;BME280;65909;49.422;7.738;2023-06-22T09:30:45;-16276.47;;;-145.25;60.75
54146;BME280;65909;49.422;7.738;2023-06-22T09:33:10;-16276.47;;;-145.25;58.82
54146;BME280;65909;49.422;7.738;2023-06-22T09:35:36;-14771.03;;;-145.25;53.86
54146;BME280;65909;49.422;7.738;2023-06-22T09:38:01;-13015.66;;;-145.25;52.29
54146;BME280;65909;49.422;7.738;2023-06-22T09:40:26;-12263.09;;;-145.25;51.77
54146;BME280;65909;49.422;7.738;2023-06-22T09:42:52;-8749.25;;;-145.25;49.26
54146;BME280;65909;49.422;7.738;2023-06-22T09:45:17;-9000.34;;;-145.25;49.79
54146;BME280;65909;49.422;7.738;2023-06-22T09:47:42;-10506.59;;;-145.25;51.50
54146;BME280;65909;49.422;7.738;2023-06-22T09:50:08;-12764.81;;;-145.25;53.92
54146;BME280;65909;49.422;7.738;2023-06-22T09:52:34;-14269.56;;;-145.25;55.42
54146;BME280;65909;49.422;7.738;2023-06-22T09:54:59;-16275.00;;;-145.25;58.44
54146;BME280;65909;49.422;7.738;2023-06-22T09:57:24;-16276.47;;;-145.25;60.94
54146;BME280;65909;49.422;7.738;2023-06-22T09:59:50;-15523.09;;;-145.25;56.18
54146;BME280;65909;49.422;7.738;2023-06-22T10:02:15;-12513.97;;;-145.25;53.28
54146;BME280;65909;49.422;7.738;2023-06-22T10:04:41;-11008.53;;;-145.25;52.60
54146;BME280;65909;49.422;7.738;2023-06-22T10:07:07;-8498.16;;;-145.25;50.24
54146;BME280;65909;49.422;7.738;2023-06-22T10:09:32;-7242.34;;;-145.25;49.69
54146;BME280;65909;49.422;7.738;2023-06-22T10:11:58;-8749.25;;;-145.25;51.54
54146;BME280;65909;49.422;7.738;2023-06-22T10:14:23;-14269.56;;;-145.25;56.20
54146;BME280;65909;49.422;7.738;2023-06-22T10:16:52;-13768.06;;;-145.25;55.59
54146;BME280;65909;49.422;7.738;2023-06-22T10:19:17;-15773.72;;;-145.25;58.52
54146;BME280;65909;49.422;7.738;2023-06-22T10:21:43;-12513.97;;;-145.25;54.69
54146;BME280;65909;49.422;7.738;2023-06-22T10:24:08;-11761.31;;;-145.25;53.94
54146;BME280;65909;49.422;7.738;2023-06-22T10:26:35;-8498.16;;;-145.25;51.51
54146;BME280;65909;49.422;7.738;2023-06-22T10:29:02;-8247.03;;;-145.25;51.45
54146;BME280;65909;49.422;7.738;2023-06-22T10:31:28;-7744.72;;;-145.25;51.99
54146;BME280;65909;49.422;7.738;2023-06-22T10:33:54;-10255.59;;;-145.25;53.83
54146;BME280;65909;49.422;7.738;2023-06-22T10:36:20;-11510.41;;;-145.25;54.57
54146;BME280;65909;49.422;7.738;2023-06-22T10:38:45;-12513.97;;;-145.25;55.55
54146;BME280;65909;49.422;7.738;2023-06-22T10:41:12;-14018.81;;;-145.25;57.10
54146;BME280;65909;49.422;7.738;2023-06-22T10:43:38;-16275.00;;;-145.25;60.07
54146;BME280;65909;49.422;7.738;2023-06-22T10:46:03;-15021.72;;;-145.25;57.92
54146;BME280;65909;49.422;7.738;2023-06-22T10:48:28;-14771.03;;;-145.25;57.94
54146;BME280;65909;49.422;7.738;2023-06-22T10:50:54;-12764.81;;;-145.25;55.62
54146;BME280;65909;49.422;7.738;2023-06-22T10:53:19;-12513.97;;;-145.25;55.72
54146;BME280;65909;49.422;7.738;2023-06-22T10:55:45;-14520.31;;;-145.25;57.80
54146;BME280;65909;49.422;7.738;2023-06-22T10:58:10;-13015.66;;;-145.25;55.96
54146;BME280;65909;49.422;7.738;2023-06-22T11:00:35;-8749.25;;;-145.25;52.65
54146;BME280;65909;49.422;7.738;2023-06-22T11:03:01;-8749.25;;;-145.25;53.30
54146;BME280;65909;49.422;7.738;2023-06-22T11:05:26;-8749.25;;;-145.25;53.16
54146;BME280;65909;49.422;7.738;2023-06-22T11:07:51;-9000.34;;;-145.25;53.35
54146;BME280;65909;49.422;7.738;2023-06-22T11:10:17;-8247.03;;;-145.25;52.98
54146;BME280;65909;49.422;7.738;2023-06-22T11:12:42;-10004.56;;;-145.25;54.22
54146;BME280;65909;49.422;7.738;2023-06-22T11:15:08;-9000.34;;;-145.25;54.08
54146;BME280;65909;49.422;7.738;2023-06-22T11:17:34;-12012.22;;;-145.25;56.16
54146;BME280;65909;49.422;7.738;2023-06-22T11:19:59;-13266.47;;;-145.25;57.44
54146;BME280;65909;49.422;7.738;2023-06-22T11:22:25;-13266.47;;;-145.25;56.97
54146;BME280;65909;49.422;7.738;2023-06-22T11:24:50;-11259.47;;;-145.25;55.23
54146;BME280;65909;49.422;7.738;2023-06-22T11:27:16;-11510.41;;;-145.25;55.74
54146;BME280;65909;49.422;7.738;2023-06-22T11:29:41;-12513.97;;;-145.25;56.92
54146;BME280;65909;49.422;7.738;2023-06-22T11:32:07;-14269.56;;;-145.25;58.42
54146;BME280;65909;49.422;7.738;2023-06-22T11:34:32;-13015.66;;;-145.25;57.16
54146;BME280;65909;49.422;7.738;2023-06-22T11:36:58;-13266.47;;;-145.25;57.32
54146;BME280;65909;49.422;7.738;2023-06-22T11:39:23;-14520.31;;;-145.25;58.90
54146;BME280;65909;49.422;7.738;2023-06-22T11:41:48;-15272.41;;;-145.25;59.84
54146;BME280;65909;49.422;7.738;2023-06-22T11:44:14;-14520.31;;;-145.25;58.74
54146;BME280;65909;49.422;7.738;2023-06-22T11:46:39;-15272.41;;;-145.25;59.70
54146;BME280;65909;49.422;7.738;2023-06-22T11:49:05;-13015.66;;;-145.25;57.22
54146;BME280;65909;49.422;7.738;2023-06-22T11:51:30;-14520.31;;;-145.25;58.91
54146;BME280;65909;49.422;7.738;2023-06-22T11:53:56;-13768.06;;;-145.25;58.13
54146;BME280;65909;49.422;7.738;2023-06-22T11:56:22;-14771.03;;;-145.25;59.22
54146;BME280;65909;49.422;7.738;2023-06-22T11:58:47;-15021.72;;;-145.25;60.12
54146;BME280;65909;49.422;7.738;2023-06-22T12:01:13;-16275.00;;;-145.25;61.48
54146;BME280;65909;49.422;7.738;2023-06-22T12:03:40;-16024.38;;;-145.25;61.45
54146;BME280;65909;49.422;7.738;2023-06-22T12:06:05;-16276.47;;;-145.25;62.02
54146;BME280;65909;49.422;7.738;2023-06-22T12:08:31;-16275.00;;;-145.25;61.75
54146;BME280;65909;49.422;7.738;2023-06-22T12:10:56;-16276.47;;;-145.25;62.69
54146;BME280;65909;49.422;7.738;2023-06-22T12:13:21;-16024.38;;;-145.25;60.92
54146;BME280;65909;49.422;7.738;2023-06-22T12:15:47;-15272.41;;;-145.25;59.87
54146;BME280;65909;49.422;7.738;2023-06-22T12:18:12;-14771.03;;;-145.25;59.34
54146;BME280;65909;49.422;7.738;2023-06-22T12:20:40;-15021.72;;;-145.25;60.00
54146;BME280;65909;49.422;7.738;2023-06-22T12:23:05;-15021.72;;;-145.25;60.08
54146;BME280;65909;49.422;7.738;2023-06-22T12:25:30;-16276.47;;;-145.25;62.33
54146;BME280;65909;49.422;7.738;2023-06-22T12:27:56;-16276.47;;;-145.25;63.95